Flight Track Log - Related Links

Times and Time Zones

All times are in EDT time to prevent confusion due to time zone crossing. See the SWA2182 flight status page for this flight to view local times or setup timezone preferences in your user account.

Time Position Orientation Groundspeed Altitude Reporting Facility
EDT Latitude Longitude Course Direction KTS MPH feet Rate Location/Type
Thu 09:13:35 PM 42.3667 -70.9833 82° East 190 219 900  Level KA90
Thu 09:16:00 PM 42.3883 -70.7817 82° East 267 307 7,200 2,810 Climbing Boston Center
Thu 09:17:00 PM 42.3250 -70.7272 148° Southeast 254 292 10,500 3,017 Climbing Boston Center
Thu 09:19:01 PM 42.2378 -70.8978 235° Southwest 213 245 16,300 2,749 Climbing Boston Center
Thu 09:19:59 PM 42.2186 -71.0272 259° West 328 377 18,700 2,256 Climbing Boston Center
Thu 09:20:58 PM 42.2014 -71.1508 259° West 345 397 20,700 1,866 Climbing Boston Center
Thu 09:21:58 PM 42.1819 -71.2831 259° West 363 418 22,400 1,600 Climbing Boston Center
Thu 09:22:58 PM 42.1603 -71.4261 258° West 376 433 23,900 1,574 Climbing Boston Center
Thu 09:24:00 PM 42.1303 -71.5778 255° West 382 440 25,600 1,967 Climbing Boston Center
Thu 09:25:00 PM 42.1125 -71.7208 261° West 387 445 27,900 2,085 Climbing Boston Center
Thu 09:25:58 PM 42.1114 -71.8636 269° West 387 445 29,700 1,664 Climbing Boston Center
Thu 09:26:59 PM 42.0681 -71.9869 245° Southwest 368 423 31,200 1,537 Climbing Boston Center
Thu 09:27:59 PM 42.0081 -72.0992 234° Southwest 368 423 32,800 1,400 Climbing Boston Center
Thu 09:28:59 PM 41.9542 -72.2139 238° Southwest 368 423 34,000 541 Climbing Boston Center
Thu 09:30:12 PM 41.8878 -72.3508 237° Southwest 373 429 34,000  Level Boston Center
Thu 09:31:10 PM 41.8314 -72.4708 238° Southwest 373 429 34,000  Level Boston Center
Thu 09:32:11 PM 41.7731 -72.5875 236° Southwest 379 436 34,000  Level Boston Center
Thu 09:33:12 PM 41.7164 -72.7072 238° Southwest 384 442 34,000  Level Boston Center
Thu 09:34:10 PM 41.6558 -72.8264 236° Southwest 391 450 34,000  Level Boston Center
Thu 09:35:10 PM 41.5969 -72.9453 237° Southwest 391 450 34,000  Level Boston Center
Thu 09:36:11 PM 41.5400 -73.0642 237° Southwest 391 450 34,000  Level Boston Center
Thu 09:37:10 PM 41.4872 -73.1717 237° Southwest 379 436 34,000  Level Boston Center
Thu 09:38:10 PM 41.4303 -73.2844 236° Southwest 374 430 34,000  Level Boston Center
Thu 09:39:10 PM 41.3731 -73.4000 237° Southwest 368 423 34,000  Level Boston Center
Thu 09:40:11 PM 41.3200 -73.5125 238° Southwest 368 423 34,000  Level Boston Center
Thu 09:42:28 PM 41.1822 -73.7539 233° Southwest 385 443 34,000  Level New York Center
Thu 09:43:29 PM 41.1169 -73.8614 231° Southwest 385 443 34,000 -50 Level New York Center
Thu 09:44:27 PM 41.0536 -73.9711 233° Southwest 385 443 33,900  Descending New York Center
Thu 09:45:28 PM 40.9903 -74.0781 232° Southwest 385 443 34,000 49 Climbing New York Center
Thu 09:46:29 PM 40.9161 -74.1925 229° Southwest 380 437 34,000  Level New York Center
Thu 09:47:30 PM 40.8506 -74.2989 231° Southwest 380 437 34,000  Level New York Center
Thu 09:48:28 PM 40.7869 -74.4053 232° Southwest 380 437 34,000  Level New York Center
Thu 09:49:30 PM 40.7211 -74.5142 231° Southwest 380 437 34,000  Level New York Center
Thu 09:50:27 PM 40.6528 -74.6253 231° Southwest 385 443 34,000 -51 Level New York Center
Thu 09:51:28 PM 40.5867 -74.7361 232° Southwest 385 443 33,900 -934 Descending New York Center
Thu 09:52:29 PM 40.5167 -74.8358 227° Southwest 385 443 32,100 -2,311 Descending New York Center
Thu 09:53:30 PM 40.4419 -74.9433 228° Southwest 391 450 29,200 -2,672 Descending New York Center
Thu 09:54:28 PM 40.3694 -75.0478 228° Southwest 396 456 26,800 -2,361 Descending New York Center
Thu 09:55:32 PM 40.2969 -75.1494 227° Southwest 396 456 24,400 -2,301 Descending New York Center
Thu 09:56:41 PM 40.2156 -75.2614 226° Southwest 383 441 21,700 -2,123 Descending New York Center
Thu 09:57:42 PM 40.1497 -75.3519 226° Southwest 365 420 19,800 -1,361 Descending New York Center
Thu 09:58:40 PM 40.0900 -75.4378 228° Southwest 360 414 19,000 -403 Descending New York Center
Thu 09:59:41 PM 40.0175 -75.5331 225° Southwest 343 395 19,000  Level New York Center
Thu 10:00:42 PM 39.9556 -75.6211 227° Southwest 331 381 19,000  Level New York Center
Thu 10:01:40 PM 39.8953 -75.7142 230° Southwest 336 387 19,000 -1,183 Level New York Center
Thu 10:03:00 PM 39.8268 -75.8358 234° Southwest  Level FlightAware Approximate
Thu 10:04:20 PM 39.7500 -75.9833 234° Southwest 338 389 14,700  Level Potomac TRACON
Thu 10:05:26 PM 39.6833 -76.1000 233° Southwest 329 379 12,100 -1,419 Descending Potomac TRACON
Thu 10:07:26 PM 39.6000 -76.3000 242° Southwest 323 372 10,300 -800 Descending Potomac TRACON
Thu 10:09:26 PM 39.5000 -76.4833 235° Southwest 276 318 8,900 -867 Descending Potomac TRACON
Thu 10:10:26 PM 39.4500 -76.5333 218° Southwest 258 297 7,700 -1,400 Descending Potomac TRACON
Thu 10:12:26 PM 39.3500 -76.6833 229° Southwest 249 287 4,700 -1,345 Descending Potomac TRACON
Thu 10:13:20 PM 39.3167 -76.7333 229° Southwest 239 275 3,800 -1,000 Descending Potomac TRACON
Thu 10:14:26 PM 39.2833 -76.8000 237° Southwest 222 255 2,700 -439 Descending Potomac TRACON
Thu 10:16:00 PM 39.1845 -76.6794 137° Southeast  Level Estimated
Thu 10:17:26 PM 39.1833 -76.8833 137° Southeast 202 232 2,000  Level Potomac TRACON
Thu 10:19:26 PM 39.1833 -76.7667 90° East 139 160 1,300 -350 Descending Potomac TRACON
Thu 10:21:00 PM 39.1667 -76.6667 270° West  Level FlightAware Approximate
Thu 10:28:00 PM 39.1754 -76.6683 270° West  Level Estimated
Thu 10:29:00 PM 39.1754 -76.6683 270° West  Level Estimated
Thu 10:30:00 PM 39.1754 -76.6683 270° West  Level Estimated
Thu 10:31:00 PM 39.1754 -76.6683 270° West  Level Estimated
Thu 10:32:00 PM 39.1754 -76.6683 270° West  Level Estimated

Login

Don't have an account? Register now (free) for customized features, flight alerts, and more!